Milmont Park, Pennsylvania
Current Conditions -  °F | °C
As of 2:54 AM on Saturday 27 Dec 2014 (Local Time) from KPHL Reporting Station
Scattered Clouds Scattered Clouds  
Wind Chill: 30°   Ceiling: Unl
Heat Index: 34°   Visibility: 10mi
Dew Point: 30°   Wind: 5mph
Humidity: 85%   Direction: 230°SW
Pressure: 30.26"   Gusts: NA
Location:  39.8911°N, 75.3286°W
Report Text: KPHL 270754Z 23004KT 10SM SCT250 01/M01 A3026 RMK AO2 SLP246 T00111011
Loading
Personal Weather Stations






























Interactive Weather Map New forecast layout! Learn more

10-Day Weather Forecast

Advertisements
Track Severe Weather on mobile